sensor_id;sensor_type;location;lat;lon;timestamp;P1;durP1;ratioP1;P2;durP2;ratioP2
77206;SDS011;66190;50.708;7.906;2023-02-15T00:01:42;34.25;;;13.20;;
77206;SDS011;66190;50.708;7.906;2023-02-15T00:04:08;30.47;;;13.13;;
77206;SDS011;66190;50.708;7.906;2023-02-15T00:06:37;33.55;;;13.57;;
77206;SDS011;66190;50.708;7.906;2023-02-15T00:09:02;29.80;;;12.65;;
77206;SDS011;66190;50.708;7.906;2023-02-15T00:11:28;31.07;;;11.57;;
77206;SDS011;66190;50.708;7.906;2023-02-15T00:14:16;29.10;;;12.07;;
77206;SDS011;66190;50.708;7.906;2023-02-15T00:16:44;28.80;;;12.35;;
77206;SDS011;66190;50.708;7.906;2023-02-15T00:19:11;29.73;;;12.50;;
77206;SDS011;66190;50.708;7.906;2023-02-15T00:21:38;30.02;;;12.85;;
77206;SDS011;66190;50.708;7.906;2023-02-15T00:24:06;30.63;;;12.68;;
77206;SDS011;66190;50.708;7.906;2023-02-15T00:26:33;31.40;;;12.75;;
77206;SDS011;66190;50.708;7.906;2023-02-15T00:28:59;35.38;;;13.50;;
77206;SDS011;66190;50.708;7.906;2023-02-15T00:31:26;34.00;;;14.03;;
77206;SDS011;66190;50.708;7.906;2023-02-15T00:33:52;33.90;;;13.00;;
77206;SDS011;66190;50.708;7.906;2023-02-15T00:36:18;35.55;;;15.52;;
77206;SDS011;66190;50.708;7.906;2023-02-15T00:38:44;31.00;;;11.70;;
77206;SDS011;66190;50.708;7.906;2023-02-15T00:41:09;32.67;;;12.48;;
77206;SDS011;66190;50.708;7.906;2023-02-15T00:43:35;34.83;;;13.63;;
77206;SDS011;66190;50.708;7.906;2023-02-15T00:46:02;34.65;;;13.05;;
77206;SDS011;66190;50.708;7.906;2023-02-15T00:48:29;35.25;;;13.55;;
77206;SDS011;66190;50.708;7.906;2023-02-15T00:50:55;32.53;;;13.30;;
77206;SDS011;66190;50.708;7.906;2023-02-15T00:53:23;40.17;;;13.90;;
77206;SDS011;66190;50.708;7.906;2023-02-15T00:55:49;38.83;;;15.95;;
77206;SDS011;66190;50.708;7.906;2023-02-15T00:58:15;35.17;;;14.40;;
77206;SDS011;66190;50.708;7.906;2023-02-15T01:00:42;39.00;;;15.00;;
77206;SDS011;66190;50.708;7.906;2023-02-15T01:03:10;36.95;;;13.65;;
77206;SDS011;66190;50.708;7.906;2023-02-15T01:05:36;36.83;;;14.27;;
77206;SDS011;66190;50.708;7.906;2023-02-15T01:08:02;39.53;;;15.45;;
77206;SDS011;66190;50.708;7.906;2023-02-15T01:10:28;40.17;;;16.17;;
77206;SDS011;66190;50.708;7.906;2023-02-15T01:12:54;36.00;;;14.20;;
77206;SDS011;66190;50.708;7.906;2023-02-15T01:15:20;37.28;;;13.32;;
77206;SDS011;66190;50.708;7.906;2023-02-15T01:17:46;33.38;;;13.15;;
77206;SDS011;66190;50.708;7.906;2023-02-15T01:20:18;39.63;;;14.45;;
77206;SDS011;66190;50.708;7.906;2023-02-15T01:22:44;38.30;;;14.70;;
77206;SDS011;66190;50.708;7.906;2023-02-15T01:25:10;33.60;;;13.60;;
77206;SDS011;66190;50.708;7.906;2023-02-15T01:27:35;37.73;;;14.37;;
77206;SDS011;66190;50.708;7.906;2023-02-15T01:30:01;34.70;;;13.48;;
77206;SDS011;66190;50.708;7.906;2023-02-15T01:32:29;37.00;;;14.32;;
77206;SDS011;66190;50.708;7.906;2023-02-15T01:34:55;32.57;;;12.27;;
77206;SDS011;66190;50.708;7.906;2023-02-15T01:37:21;35.33;;;13.50;;
77206;SDS011;66190;50.708;7.906;2023-02-15T01:39:46;34.10;;;13.53;;
77206;SDS011;66190;50.708;7.906;2023-02-15T01:42:12;31.00;;;12.45;;
77206;SDS011;66190;50.708;7.906;2023-02-15T01:47:34;32.13;;;11.88;;
77206;SDS011;66190;50.708;7.906;2023-02-15T01:50:09;29.77;;;11.27;;
77206;SDS011;66190;50.708;7.906;2023-02-15T01:52:54;31.77;;;11.45;;
77206;SDS011;66190;50.708;7.906;2023-02-15T01:55:52;28.07;;;12.13;;
77206;SDS011;66190;50.708;7.906;2023-02-15T01:58:27;29.88;;;12.52;;
77206;SDS011;66190;50.708;7.906;2023-02-15T02:00:57;31.80;;;12.43;;
77206;SDS011;66190;50.708;7.906;2023-02-15T02:06:18;30.27;;;12.98;;
77206;SDS011;66190;50.708;7.906;2023-02-15T02:08:45;34.53;;;11.90;;
77206;SDS011;66190;50.708;7.906;2023-02-15T02:11:12;32.80;;;12.70;;
77206;SDS011;66190;50.708;7.906;2023-02-15T02:13:42;31.52;;;12.32;;
77206;SDS011;66190;50.708;7.906;2023-02-15T02:24:03;27.88;;;10.98;;
77206;SDS011;66190;50.708;7.906;2023-02-15T02:27:12;27.00;;;10.17;;
77206;SDS011;66190;50.708;7.906;2023-02-15T02:40:38;33.70;;;13.07;;
77206;SDS011;66190;50.708;7.906;2023-02-15T02:44:26;27.35;;;10.90;;
77206;SDS011;66190;50.708;7.906;2023-02-15T02:46:46;30.63;;;12.70;;
77206;SDS011;66190;50.708;7.906;2023-02-15T02:49:12;32.07;;;11.93;;
77206;SDS011;66190;50.708;7.906;2023-02-15T02:51:38;29.98;;;11.73;;
77206;SDS011;66190;50.708;7.906;2023-02-15T02:54:04;28.13;;;11.53;;
77206;SDS011;66190;50.708;7.906;2023-02-15T02:59:10;31.45;;;12.52;;
77206;SDS011;66190;50.708;7.906;2023-02-15T03:01:43;29.98;;;11.48;;
77206;SDS011;66190;50.708;7.906;2023-02-15T03:04:27;34.13;;;11.83;;
77206;SDS011;66190;50.708;7.906;2023-02-15T03:07:38;29.65;;;11.23;;
77206;SDS011;66190;50.708;7.906;2023-02-15T03:09:48;32.03;;;11.48;;
77206;SDS011;66190;50.708;7.906;2023-02-15T03:12:18;28.10;;;11.13;;
77206;SDS011;66190;50.708;7.906;2023-02-15T03:15:15;31.27;;;12.18;;
77206;SDS011;66190;50.708;7.906;2023-02-15T03:17:45;33.80;;;12.43;;
77206;SDS011;66190;50.708;7.906;2023-02-15T03:20:27;33.63;;;11.45;;
77206;SDS011;66190;50.708;7.906;2023-02-15T03:22:57;33.50;;;12.38;;
77206;SDS011;66190;50.708;7.906;2023-02-15T03:25:34;31.33;;;12.27;;
77206;SDS011;66190;50.708;7.906;2023-02-15T03:28:06;33.20;;;12.98;;
77206;SDS011;66190;50.708;7.906;2023-02-15T03:30:39;30.33;;;11.20;;
77206;SDS011;66190;50.708;7.906;2023-02-15T03:33:07;28.23;;;10.80;;
77206;SDS011;66190;50.708;7.906;2023-02-15T03:35:36;31.25;;;11.38;;
77206;SDS011;66190;50.708;7.906;2023-02-15T03:38:06;33.55;;;11.57;;
77206;SDS011;66190;50.708;7.906;2023-02-15T03:40:37;28.73;;;11.05;;
77206;SDS011;66190;50.708;7.906;2023-02-15T03:45:57;30.17;;;11.68;;
77206;SDS011;66190;50.708;7.906;2023-02-15T03:48:35;34.40;;;11.32;;
77206;SDS011;66190;50.708;7.906;2023-02-15T03:51:08;29.27;;;11.68;;
77206;SDS011;66190;50.708;7.906;2023-02-15T03:57:04;27.17;;;9.90;;
77206;SDS011;66190;50.708;7.906;2023-02-15T03:59:50;28.23;;;11.27;;
77206;SDS011;66190;50.708;7.906;2023-02-15T04:05:23;25.13;;;10.63;;
77206;SDS011;66190;50.708;7.906;2023-02-15T04:07:49;29.13;;;11.73;;
77206;SDS011;66190;50.708;7.906;2023-02-15T04:10:15;30.38;;;12.00;;
77206;SDS011;66190;50.708;7.906;2023-02-15T04:12:59;27.57;;;11.13;;
77206;SDS011;66190;50.708;7.906;2023-02-15T04:15:24;25.95;;;9.68;;
77206;SDS011;66190;50.708;7.906;2023-02-15T04:18:08;25.33;;;9.77;;
77206;SDS011;66190;50.708;7.906;2023-02-15T04:20:34;29.23;;;9.87;;
77206;SDS011;66190;50.708;7.906;2023-02-15T04:23:18;28.30;;;9.93;;
77206;SDS011;66190;50.708;7.906;2023-02-15T04:26:03;25.25;;;10.55;;
77206;SDS011;66190;50.708;7.906;2023-02-15T04:28:29;29.97;;;11.63;;
77206;SDS011;66190;50.708;7.906;2023-02-15T04:30:55;28.42;;;11.27;;
77206;SDS011;66190;50.708;7.906;2023-02-15T04:33:21;28.13;;;11.07;;
77206;SDS011;66190;50.708;7.906;2023-02-15T04:35:47;25.87;;;10.47;;
77206;SDS011;66190;50.708;7.906;2023-02-15T04:38:12;32.75;;;13.20;;
77206;SDS011;66190;50.708;7.906;2023-02-15T04:40:38;29.50;;;12.88;;
77206;SDS011;66190;50.708;7.906;2023-02-15T04:43:03;32.73;;;13.77;;
77206;SDS011;66190;50.708;7.906;2023-02-15T04:45:29;33.65;;;14.88;;
77206;SDS011;66190;50.708;7.906;2023-02-15T04:47:55;28.67;;;11.93;;
77206;SDS011;66190;50.708;7.906;2023-02-15T04:50:20;29.10;;;13.30;;
77206;SDS011;66190;50.708;7.906;2023-02-15T04:52:46;29.08;;;12.23;;
77206;SDS011;66190;50.708;7.906;2023-02-15T04:55:13;27.60;;;12.05;;
77206;SDS011;66190;50.708;7.906;2023-02-15T04:57:39;23.30;;;9.87;;
77206;SDS011;66190;50.708;7.906;2023-02-15T05:00:05;22.80;;;9.88;;
77206;SDS011;66190;50.708;7.906;2023-02-15T05:02:31;24.95;;;9.50;;
77206;SDS011;66190;50.708;7.906;2023-02-15T05:04:57;23.70;;;9.70;;
77206;SDS011;66190;50.708;7.906;2023-02-15T05:07:22;24.27;;;9.95;;
77206;SDS011;66190;50.708;7.906;2023-02-15T05:09:48;21.93;;;9.17;;
77206;SDS011;66190;50.708;7.906;2023-02-15T05:12:13;19.80;;;8.10;;
77206;SDS011;66190;50.708;7.906;2023-02-15T05:14:39;21.90;;;8.02;;
77206;SDS011;66190;50.708;7.906;2023-02-15T05:17:05;19.60;;;8.57;;
77206;SDS011;66190;50.708;7.906;2023-02-15T05:19:30;18.88;;;7.78;;
77206;SDS011;66190;50.708;7.906;2023-02-15T05:21:56;20.50;;;8.00;;
77206;SDS011;66190;50.708;7.906;2023-02-15T05:24:22;20.13;;;7.75;;
77206;SDS011;66190;50.708;7.906;2023-02-15T05:27:07;19.07;;;7.50;;
77206;SDS011;66190;50.708;7.906;2023-02-15T05:29:54;18.52;;;7.20;;
77206;SDS011;66190;50.708;7.906;2023-02-15T05:32:19;21.02;;;7.07;;
77206;SDS011;66190;50.708;7.906;2023-02-15T05:34:45;17.83;;;6.53;;
77206;SDS011;66190;50.708;7.906;2023-02-15T05:37:10;21.13;;;7.40;;
77206;SDS011;66190;50.708;7.906;2023-02-15T05:39:36;20.75;;;7.72;;
77206;SDS011;66190;50.708;7.906;2023-02-15T05:42:02;17.57;;;7.33;;
77206;SDS011;66190;50.708;7.906;2023-02-15T05:44:27;18.65;;;7.18;;
77206;SDS011;66190;50.708;7.906;2023-02-15T05:46:53;17.30;;;6.50;;
77206;SDS011;66190;50.708;7.906;2023-02-15T05:49:19;19.52;;;7.60;;
77206;SDS011;66190;50.708;7.906;2023-02-15T05:51:44;20.73;;;6.70;;
77206;SDS011;66190;50.708;7.906;2023-02-15T05:54:10;20.77;;;7.53;;
77206;SDS011;66190;50.708;7.906;2023-02-15T05:56:36;20.42;;;7.15;;
77206;SDS011;66190;50.708;7.906;2023-02-15T05:59:02;17.87;;;7.00;;
77206;SDS011;66190;50.708;7.906;2023-02-15T06:01:27;17.75;;;7.30;;
77206;SDS011;66190;50.708;7.906;2023-02-15T06:03:53;19.97;;;7.37;;
77206;SDS011;66190;50.708;7.906;2023-02-15T06:06:20;20.25;;;7.57;;
77206;SDS011;66190;50.708;7.906;2023-02-15T06:08:46;17.45;;;7.55;;
77206;SDS011;66190;50.708;7.906;2023-02-15T06:11:12;20.73;;;8.03;;
77206;SDS011;66190;50.708;7.906;2023-02-15T06:13:37;21.70;;;8.02;;
77206;SDS011;66190;50.708;7.906;2023-02-15T06:16:03;17.50;;;6.90;;
77206;SDS011;66190;50.708;7.906;2023-02-15T06:18:28;20.83;;;7.10;;
77206;SDS011;66190;50.708;7.906;2023-02-15T06:20:54;19.40;;;7.60;;
77206;SDS011;66190;50.708;7.906;2023-02-15T06:23:20;17.60;;;6.93;;
77206;SDS011;66190;50.708;7.906;2023-02-15T06:25:45;19.58;;;6.95;;
77206;SDS011;66190;50.708;7.906;2023-02-15T06:28:11;17.80;;;7.03;;
77206;SDS011;66190;50.708;7.906;2023-02-15T06:30:37;21.38;;;7.80;;
77206;SDS011;66190;50.708;7.906;2023-02-15T06:33:03;18.98;;;7.07;;
77206;SDS011;66190;50.708;7.906;2023-02-15T06:35:28;18.88;;;7.05;;
77206;SDS011;66190;50.708;7.906;2023-02-15T06:37:54;18.47;;;7.53;;
77206;SDS011;66190;50.708;7.906;2023-02-15T06:40:20;21.05;;;7.78;;
77206;SDS011;66190;50.708;7.906;2023-02-15T06:42:46;18.83;;;8.00;;
77206;SDS011;66190;50.708;7.906;2023-02-15T06:45:12;19.20;;;6.82;;
77206;SDS011;66190;50.708;7.906;2023-02-15T06:47:38;21.08;;;8.32;;
77206;SDS011;66190;50.708;7.906;2023-02-15T06:50:04;18.23;;;6.70;;
77206;SDS011;66190;50.708;7.906;2023-02-15T06:52:31;18.58;;;6.75;;
77206;SDS011;66190;50.708;7.906;2023-02-15T06:54:56;17.95;;;6.80;;
77206;SDS011;66190;50.708;7.906;2023-02-15T06:57:22;16.77;;;6.17;;
77206;SDS011;66190;50.708;7.906;2023-02-15T06:59:48;17.50;;;6.27;;
77206;SDS011;66190;50.708;7.906;2023-02-15T07:02:13;16.83;;;6.28;;
77206;SDS011;66190;50.708;7.906;2023-02-15T07:04:39;15.93;;;6.18;;
77206;SDS011;66190;50.708;7.906;2023-02-15T07:07:07;15.40;;;5.97;;
77206;SDS011;66190;50.708;7.906;2023-02-15T07:09:34;17.92;;;6.35;;
77206;SDS011;66190;50.708;7.906;2023-02-15T07:11:59;14.97;;;5.73;;
77206;SDS011;66190;50.708;7.906;2023-02-15T07:14:44;15.48;;;5.43;;
77206;SDS011;66190;50.708;7.906;2023-02-15T07:17:09;18.90;;;6.28;;
77206;SDS011;66190;50.708;7.906;2023-02-15T07:19:35;14.93;;;5.27;;
77206;SDS011;66190;50.708;7.906;2023-02-15T07:22:00;15.10;;;5.53;;
77206;SDS011;66190;50.708;7.906;2023-02-15T07:24:26;15.27;;;6.10;;
77206;SDS011;66190;50.708;7.906;2023-02-15T07:26:52;16.02;;;5.63;;
77206;SDS011;66190;50.708;7.906;2023-02-15T07:29:18;14.83;;;5.30;;
77206;SDS011;66190;50.708;7.906;2023-02-15T07:31:44;13.85;;;5.10;;
77206;SDS011;66190;50.708;7.906;2023-02-15T07:34:10;15.23;;;5.57;;
77206;SDS011;66190;50.708;7.906;2023-02-15T07:36:36;15.17;;;5.57;;
77206;SDS011;66190;50.708;7.906;2023-02-15T07:39:02;14.63;;;5.30;;
77206;SDS011;66190;50.708;7.906;2023-02-15T07:41:28;16.10;;;5.88;;
77206;SDS011;66190;50.708;7.906;2023-02-15T07:43:53;14.90;;;5.57;;
77206;SDS011;66190;50.708;7.906;2023-02-15T07:46:19;16.93;;;6.10;;
77206;SDS011;66190;50.708;7.906;2023-02-15T07:48:45;16.30;;;5.70;;
77206;SDS011;66190;50.708;7.906;2023-02-15T07:51:11;14.80;;;5.63;;
77206;SDS011;66190;50.708;7.906;2023-02-15T07:53:38;16.43;;;6.97;;
77206;SDS011;66190;50.708;7.906;2023-02-15T07:56:05;13.25;;;5.43;;
77206;SDS011;66190;50.708;7.906;2023-02-15T07:58:35;14.45;;;5.40;;
77206;SDS011;66190;50.708;7.906;2023-02-15T08:01:16;13.40;;;5.57;;
77206;SDS011;66190;50.708;7.906;2023-02-15T08:03:54;15.25;;;5.40;;
77206;SDS011;66190;50.708;7.906;2023-02-15T08:06:21;14.37;;;5.13;;
77206;SDS011;66190;50.708;7.906;2023-02-15T08:08:48;14.18;;;5.32;;
77206;SDS011;66190;50.708;7.906;2023-02-15T08:11:15;13.23;;;4.70;;
77206;SDS011;66190;50.708;7.906;2023-02-15T08:13:57;13.63;;;5.23;;
77206;SDS011;66190;50.708;7.906;2023-02-15T08:19:07;15.15;;;5.80;;
77206;SDS011;66190;50.708;7.906;2023-02-15T08:21:41;14.63;;;5.63;;
77206;SDS011;66190;50.708;7.906;2023-02-15T08:24:09;13.00;;;5.07;;
77206;SDS011;66190;50.708;7.906;2023-02-15T08:26:36;12.50;;;4.27;;
77206;SDS011;66190;50.708;7.906;2023-02-15T08:29:04;12.38;;;5.07;;
77206;SDS011;66190;50.708;7.906;2023-02-15T08:31:31;14.50;;;4.78;;
77206;SDS011;66190;50.708;7.906;2023-02-15T08:33:58;13.63;;;4.82;;
77206;SDS011;66190;50.708;7.906;2023-02-15T08:36:25;14.63;;;5.43;;
77206;SDS011;66190;50.708;7.906;2023-02-15T08:38:52;13.57;;;5.50;;
77206;SDS011;66190;50.708;7.906;2023-02-15T08:41:19;13.70;;;4.93;;
77206;SDS011;66190;50.708;7.906;2023-02-15T08:43:47;15.43;;;5.82;;
77206;SDS011;66190;50.708;7.906;2023-02-15T08:46:16;15.35;;;5.07;;
77206;SDS011;66190;50.708;7.906;2023-02-15T08:48:42;12.23;;;4.87;;
77206;SDS011;66190;50.708;7.906;2023-02-15T08:53:39;12.15;;;5.28;;
77206;SDS011;66190;50.708;7.906;2023-02-15T08:56:07;12.77;;;5.18;;
77206;SDS011;66190;50.708;7.906;2023-02-15T08:58:33;16.37;;;6.33;;
77206;SDS011;66190;50.708;7.906;2023-02-15T09:00:59;12.50;;;4.80;;
77206;SDS011;66190;50.708;7.906;2023-02-15T09:03:27;13.88;;;5.07;;
77206;SDS011;66190;50.708;7.906;2023-02-15T09:06:00;13.60;;;5.38;;
77206;SDS011;66190;50.708;7.906;2023-02-15T09:08:26;12.30;;;5.03;;
77206;SDS011;66190;50.708;7.906;2023-02-15T09:10:52;13.10;;;4.60;;
77206;SDS011;66190;50.708;7.906;2023-02-15T09:13:19;14.90;;;5.60;;
77206;SDS011;66190;50.708;7.906;2023-02-15T09:15:45;12.88;;;5.25;;
77206;SDS011;66190;50.708;7.906;2023-02-15T09:18:11;12.38;;;5.13;;
77206;SDS011;66190;50.708;7.906;2023-02-15T09:20:41;13.07;;;5.43;;
77206;SDS011;66190;50.708;7.906;2023-02-15T09:23:08;12.37;;;5.43;;
77206;SDS011;66190;50.708;7.906;2023-02-15T09:25:34;12.30;;;4.90;;
77206;SDS011;66190;50.708;7.906;2023-02-15T09:27:59;13.63;;;5.20;;
77206;SDS011;66190;50.708;7.906;2023-02-15T09:30:25;13.10;;;5.18;;
77206;SDS011;66190;50.708;7.906;2023-02-15T09:32:50;13.37;;;5.17;;
77206;SDS011;66190;50.708;7.906;2023-02-15T09:35:16;16.20;;;6.18;;
77206;SDS011;66190;50.708;7.906;2023-02-15T09:37:42;13.30;;;5.03;;
77206;SDS011;66190;50.708;7.906;2023-02-15T09:40:07;13.80;;;5.20;;
77206;SDS011;66190;50.708;7.906;2023-02-15T09:42:54;14.30;;;4.95;;
77206;SDS011;66190;50.708;7.906;2023-02-15T09:45:44;12.65;;;5.18;;
77206;SDS011;66190;50.708;7.906;2023-02-15T09:48:22;13.68;;;5.45;;
77206;SDS011;66190;50.708;7.906;2023-02-15T09:51:07;14.43;;;5.25;;
77206;SDS011;66190;50.708;7.906;2023-02-15T09:53:41;12.77;;;4.70;;
77206;SDS011;66190;50.708;7.906;2023-02-15T09:58:59;14.25;;;6.18;;
77206;SDS011;66190;50.708;7.906;2023-02-15T10:07:00;14.67;;;5.43;;
77206;SDS011;66190;50.708;7.906;2023-02-15T10:09:34;13.80;;;5.30;;
77206;SDS011;66190;50.708;7.906;2023-02-15T10:12:17;14.52;;;5.68;;
77206;SDS011;66190;50.708;7.906;2023-02-15T10:32:03;14.52;;;5.25;;
77206;SDS011;66190;50.708;7.906;2023-02-15T10:34:51;13.47;;;5.53;;
77206;SDS011;66190;50.708;7.906;2023-02-15T10:37:49;15.20;;;6.22;;
77206;SDS011;66190;50.708;7.906;2023-02-15T10:48:50;15.53;;;5.40;;
77206;SDS011;66190;50.708;7.906;2023-02-15T10:56:40;15.50;;;6.10;;
77206;SDS011;66190;50.708;7.906;2023-02-15T11:02:10;14.77;;;5.97;;
77206;SDS011;66190;50.708;7.906;2023-02-15T11:07:41;13.55;;;5.38;;
77206;SDS011;66190;50.708;7.906;2023-02-15T11:12:51;15.88;;;6.25;;
77206;SDS011;66190;50.708;7.906;2023-02-15T11:15:30;16.13;;;6.83;;
77206;SDS011;66190;50.708;7.906;2023-02-15T11:18:24;14.30;;;5.82;;
77206;SDS011;66190;50.708;7.906;2023-02-15T11:21:01;15.18;;;6.32;;
77206;SDS011;66190;50.708;7.906;2023-02-15T11:23:32;12.95;;;5.55;;
77206;SDS011;66190;50.708;7.906;2023-02-15T11:26:02;15.05;;;5.60;;
77206;SDS011;66190;50.708;7.906;2023-02-15T11:28:51;13.80;;;5.87;;
77206;SDS011;66190;50.708;7.906;2023-02-15T11:31:34;13.00;;;5.55;;
77206;SDS011;66190;50.708;7.906;2023-02-15T11:34:15;15.80;;;5.95;;
77206;SDS011;66190;50.708;7.906;2023-02-15T11:36:49;12.35;;;5.65;;
77206;SDS011;66190;50.708;7.906;2023-02-15T11:39:17;13.57;;;5.60;;
77206;SDS011;66190;50.708;7.906;2023-02-15T11:41:46;12.27;;;5.03;;
77206;SDS011;66190;50.708;7.906;2023-02-15T11:46:46;11.82;;;4.82;;
77206;SDS011;66190;50.708;7.906;2023-02-15T11:51:47;13.25;;;5.45;;
77206;SDS011;66190;50.708;7.906;2023-02-15T11:54:15;12.57;;;5.43;;
77206;SDS011;66190;50.708;7.906;2023-02-15T11:56:43;13.95;;;5.60;;
77206;SDS011;66190;50.708;7.906;2023-02-15T11:59:10;13.73;;;5.63;;
77206;SDS011;66190;50.708;7.906;2023-02-15T12:01:40;12.57;;;6.05;;
77206;SDS011;66190;50.708;7.906;2023-02-15T12:09:46;14.23;;;5.57;;
77206;SDS011;66190;50.708;7.906;2023-02-15T12:12:22;14.63;;;6.80;;
77206;SDS011;66190;50.708;7.906;2023-02-15T12:14:49;13.32;;;5.90;;
77206;SDS011;66190;50.708;7.906;2023-02-15T12:17:16;14.30;;;6.38;;
77206;SDS011;66190;50.708;7.906;2023-02-15T12:19:43;13.55;;;5.82;;
77206;SDS011;66190;50.708;7.906;2023-02-15T12:22:27;15.00;;;6.20;;
77206;SDS011;66190;50.708;7.906;2023-02-15T12:24:56;14.43;;;5.72;;
77206;SDS011;66190;50.708;7.906;2023-02-15T12:27:26;15.52;;;7.25;;
77206;SDS011;66190;50.708;7.906;2023-02-15T12:30:04;15.05;;;6.18;;
77206;SDS011;66190;50.708;7.906;2023-02-15T12:33:02;14.30;;;6.35;;
77206;SDS011;66190;50.708;7.906;2023-02-15T12:35:33;14.93;;;6.07;;
77206;SDS011;66190;50.708;7.906;2023-02-15T12:38:02;14.25;;;6.30;;
77206;SDS011;66190;50.708;7.906;2023-02-15T12:41:02;13.70;;;6.32;;
77206;SDS011;66190;50.708;7.906;2023-02-15T12:43:37;14.63;;;6.72;;
77206;SDS011;66190;50.708;7.906;2023-02-15T12:46:13;14.95;;;6.90;;
77206;SDS011;66190;50.708;7.906;2023-02-15T12:51:58;13.77;;;6.50;;
77206;SDS011;66190;50.708;7.906;2023-02-15T13:02:55;14.43;;;6.30;;
77206;SDS011;66190;50.708;7.906;2023-02-15T13:05:25;15.95;;;6.90;;
77206;SDS011;66190;50.708;7.906;2023-02-15T13:08:14;15.68;;;7.00;;
77206;SDS011;66190;50.708;7.906;2023-02-15T13:10:53;15.18;;;6.55;;
77206;SDS011;66190;50.708;7.906;2023-02-15T13:13:31;14.35;;;7.10;;
77206;SDS011;66190;50.708;7.906;2023-02-15T13:16:00;15.50;;;7.20;;
77206;SDS011;66190;50.708;7.906;2023-02-15T13:18:34;15.60;;;6.85;;
77206;SDS011;66190;50.708;7.906;2023-02-15T13:21:10;15.90;;;7.28;;
77206;SDS011;66190;50.708;7.906;2023-02-15T13:23:38;15.40;;;6.95;;
77206;SDS011;66190;50.708;7.906;2023-02-15T13:26:11;17.00;;;7.40;;
77206;SDS011;66190;50.708;7.906;2023-02-15T13:28:43;14.00;;;6.80;;
77206;SDS011;66190;50.708;7.906;2023-02-15T13:31:13;16.60;;;7.22;;
77206;SDS011;66190;50.708;7.906;2023-02-15T13:33:43;16.77;;;6.93;;
77206;SDS011;66190;50.708;7.906;2023-02-15T13:36:27;17.13;;;7.65;;
77206;SDS011;66190;50.708;7.906;2023-02-15T13:50:30;18.40;;;8.50;;
77206;SDS011;66190;50.708;7.906;2023-02-15T14:03:46;18.63;;;8.35;;
77206;SDS011;66190;50.708;7.906;2023-02-15T14:15:04;17.05;;;7.97;;
77206;SDS011;66190;50.708;7.906;2023-02-15T14:26:21;19.75;;;9.13;;
77206;SDS011;66190;50.708;7.906;2023-02-15T14:31:41;19.63;;;8.68;;
77206;SDS011;66190;50.708;7.906;2023-02-15T14:34:29;20.52;;;9.75;;
77206;SDS011;66190;50.708;7.906;2023-02-15T14:37:01;19.30;;;9.27;;
77206;SDS011;66190;50.708;7.906;2023-02-15T14:39:52;20.33;;;10.70;;
77206;SDS011;66190;50.708;7.906;2023-02-15T14:42:57;20.85;;;10.50;;
77206;SDS011;66190;50.708;7.906;2023-02-15T14:45:33;24.27;;;11.43;;
77206;SDS011;66190;50.708;7.906;2023-02-15T14:48:10;21.08;;;10.95;;
77206;SDS011;66190;50.708;7.906;2023-02-15T14:50:42;21.08;;;9.90;;
77206;SDS011;66190;50.708;7.906;2023-02-15T14:55:47;21.00;;;9.85;;
77206;SDS011;66190;50.708;7.906;2023-02-15T14:58:25;20.63;;;10.20;;
77206;SDS011;66190;50.708;7.906;2023-02-15T15:00:51;20.77;;;10.30;;
77206;SDS011;66190;50.708;7.906;2023-02-15T15:03:31;20.40;;;9.13;;
77206;SDS011;66190;50.708;7.906;2023-02-15T15:05:57;19.70;;;8.82;;
77206;SDS011;66190;50.708;7.906;2023-02-15T15:08:28;21.83;;;10.20;;
77206;SDS011;66190;50.708;7.906;2023-02-15T15:10:57;19.70;;;9.48;;
77206;SDS011;66190;50.708;7.906;2023-02-15T15:14:03;19.92;;;10.00;;
77206;SDS011;66190;50.708;7.906;2023-02-15T15:19:02;21.45;;;9.40;;
77206;SDS011;66190;50.708;7.906;2023-02-15T15:35:27;19.67;;;9.10;;
77206;SDS011;66190;50.708;7.906;2023-02-15T15:43:48;21.65;;;9.95;;
77206;SDS011;66190;50.708;7.906;2023-02-15T15:49:49;20.70;;;8.50;;
77206;SDS011;66190;50.708;7.906;2023-02-15T15:52:20;17.83;;;8.57;;
77206;SDS011;66190;50.708;7.906;2023-02-15T15:54:48;18.05;;;9.13;;
77206;SDS011;66190;50.708;7.906;2023-02-15T15:57:31;23.60;;;10.07;;
77206;SDS011;66190;50.708;7.906;2023-02-15T16:00:21;20.23;;;9.90;;
77206;SDS011;66190;50.708;7.906;2023-02-15T16:02:51;20.73;;;9.70;;
77206;SDS011;66190;50.708;7.906;2023-02-15T16:05:18;18.40;;;9.20;;
77206;SDS011;66190;50.708;7.906;2023-02-15T16:07:44;19.70;;;8.98;;
77206;SDS011;66190;50.708;7.906;2023-02-15T16:10:23;21.67;;;9.90;;
77206;SDS011;66190;50.708;7.906;2023-02-15T16:12:53;18.33;;;8.80;;
77206;SDS011;66190;50.708;7.906;2023-02-15T16:15:23;22.10;;;10.02;;
77206;SDS011;66190;50.708;7.906;2023-02-15T16:18:17;21.73;;;9.23;;
77206;SDS011;66190;50.708;7.906;2023-02-15T16:20:52;22.13;;;10.70;;
77206;SDS011;66190;50.708;7.906;2023-02-15T16:28:39;20.45;;;9.90;;
77206;SDS011;66190;50.708;7.906;2023-02-15T16:31:14;20.33;;;9.13;;
77206;SDS011;66190;50.708;7.906;2023-02-15T16:33:41;20.50;;;9.10;;
77206;SDS011;66190;50.708;7.906;2023-02-15T16:36:27;21.80;;;10.00;;
77206;SDS011;66190;50.708;7.906;2023-02-15T16:41:22;20.25;;;9.48;;
77206;SDS011;66190;50.708;7.906;2023-02-15T16:43:50;23.50;;;9.90;;
77206;SDS011;66190;50.708;7.906;2023-02-15T16:46:31;21.98;;;9.82;;
77206;SDS011;66190;50.708;7.906;2023-02-15T16:49:03;24.05;;;10.15;;
77206;SDS011;66190;50.708;7.906;2023-02-15T16:51:33;22.30;;;10.27;;
77206;SDS011;66190;50.708;7.906;2023-02-15T16:54:05;22.77;;;10.02;;
77206;SDS011;66190;50.708;7.906;2023-02-15T16:56:32;28.63;;;13.40;;
77206;SDS011;66190;50.708;7.906;2023-02-15T16:58:59;24.98;;;10.88;;
77206;SDS011;66190;50.708;7.906;2023-02-15T17:01:29;23.80;;;10.65;;
77206;SDS011;66190;50.708;7.906;2023-02-15T17:07:04;27.00;;;10.50;;
77206;SDS011;66190;50.708;7.906;2023-02-15T17:09:40;28.80;;;12.48;;
77206;SDS011;66190;50.708;7.906;2023-02-15T17:18:00;27.13;;;11.00;;
77206;SDS011;66190;50.708;7.906;2023-02-15T17:20:33;25.58;;;10.63;;
77206;SDS011;66190;50.708;7.906;2023-02-15T17:23:03;26.08;;;11.00;;
77206;SDS011;66190;50.708;7.906;2023-02-15T17:25:37;27.70;;;11.20;;
77206;SDS011;66190;50.708;7.906;2023-02-15T17:28:04;26.50;;;11.75;;
77206;SDS011;66190;50.708;7.906;2023-02-15T17:30:40;26.80;;;10.60;;
77206;SDS011;66190;50.708;7.906;2023-02-15T17:33:19;23.65;;;10.48;;
77206;SDS011;66190;50.708;7.906;2023-02-15T17:41:22;26.35;;;10.88;;
77206;SDS011;66190;50.708;7.906;2023-02-15T17:43:48;26.13;;;11.00;;
77206;SDS011;66190;50.708;7.906;2023-02-15T17:46:13;26.40;;;11.27;;
77206;SDS011;66190;50.708;7.906;2023-02-15T17:48:41;27.30;;;11.05;;
77206;SDS011;66190;50.708;7.906;2023-02-15T17:51:10;23.80;;;10.17;;
77206;SDS011;66190;50.708;7.906;2023-02-15T17:53:38;27.63;;;11.45;;
77206;SDS011;66190;50.708;7.906;2023-02-15T17:56:04;27.05;;;11.18;;
77206;SDS011;66190;50.708;7.906;2023-02-15T17:58:35;26.77;;;11.00;;
77206;SDS011;66190;50.708;7.906;2023-02-15T18:01:03;25.27;;;10.82;;
77206;SDS011;66190;50.708;7.906;2023-02-15T18:03:56;28.30;;;11.10;;
77206;SDS011;66190;50.708;7.906;2023-02-15T18:06:41;29.80;;;12.60;;
77206;SDS011;66190;50.708;7.906;2023-02-15T18:09:27;30.50;;;12.95;;
77206;SDS011;66190;50.708;7.906;2023-02-15T18:12:19;26.20;;;11.90;;
77206;SDS011;66190;50.708;7.906;2023-02-15T18:14:46;30.40;;;12.63;;
77206;SDS011;66190;50.708;7.906;2023-02-15T18:17:13;33.67;;;14.10;;